createdAt,value
2022-12-13T00:02:00.027Z,40.28
2022-12-13T00:04:28.577Z,48.08
2022-12-13T00:06:57.052Z,41.35
2022-12-13T00:09:27.058Z,41.53
2022-12-13T00:11:55.426Z,41.60
2022-12-13T00:14:23.723Z,41.42
2022-12-13T00:16:52.297Z,42.33
2022-12-13T00:19:21.357Z,39.83
2022-12-13T00:21:49.901Z,44.13
2022-12-13T00:24:18.266Z,41.83
2022-12-13T00:26:48.097Z,38.72
2022-12-13T00:29:17.320Z,44.35
2022-12-13T00:32:01.465Z,47.10
2022-12-13T00:34:30.613Z,43.95
2022-12-13T00:37:00.158Z,46.10
2022-12-13T00:39:29.408Z,45.78
2022-12-13T00:41:59.543Z,43.45
2022-12-13T00:44:28.132Z,50.55
2022-12-13T00:46:56.620Z,48.05
2022-12-13T00:49:25.675Z,47.25
2022-12-13T00:51:54.154Z,43.55
2022-12-13T00:54:22.669Z,45.13
2022-12-13T00:56:52.291Z,44.25
2022-12-13T00:59:22.548Z,43.92
2022-12-13T01:01:50.935Z,42.70
2022-12-13T01:04:19.324Z,42.35
2022-12-13T01:06:51.440Z,45.78
2022-12-13T01:09:23.222Z,45.97
2022-12-13T01:11:52.709Z,36.55
2022-12-13T01:14:22.521Z,45.10
2022-12-13T01:16:50.930Z,50.92
2022-12-13T01:19:19.338Z,39.05
2022-12-13T01:21:47.753Z,45.03
2022-12-13T01:24:20.622Z,45.25
2022-12-13T01:26:49.024Z,46.25
2022-12-13T01:29:17.462Z,44.17
2022-12-13T01:31:47.317Z,43.67
2022-12-13T01:34:18.738Z,49.47
2022-12-13T01:36:48.828Z,46.85
2022-12-13T01:39:20.823Z,44.65
2022-12-13T01:41:59.685Z,43.80
2022-12-13T01:45:06.241Z,45.88
2022-12-13T01:47:40.736Z,44.67
2022-12-13T01:50:13.702Z,43.50
2022-12-13T01:52:43.212Z,39.42
2022-12-13T01:55:13.633Z,42.42
2022-12-13T01:57:45.824Z,47.47
2022-12-13T02:00:17.113Z,44.35
2022-12-13T02:02:48.192Z,41.13
2022-12-13T02:05:24.458Z,47.78
2022-12-13T02:07:54.442Z,43.10
2022-12-13T02:10:22.980Z,46.65
2022-12-13T02:12:52.123Z,46.35
2022-12-13T02:15:21.437Z,46.92
2022-12-13T02:18:11.866Z,41.38
2022-12-13T02:21:04.554Z,42.22
2022-12-13T02:24:38.853Z,42.85
2022-12-13T02:27:30.549Z,41.75
2022-12-13T02:30:27.228Z,40.70
2022-12-13T02:33:21.315Z,43.03
2022-12-13T02:36:01.075Z,37.15
2022-12-13T02:38:38.078Z,41.38
2022-12-13T02:41:16.669Z,34.25
2022-12-13T02:43:50.883Z,38.15
2022-12-13T02:46:23.907Z,41.45
2022-12-13T02:48:56.276Z,43.50
2022-12-13T02:51:26.570Z,45.50
2022-12-13T02:53:55.007Z,45.08
2022-12-13T02:56:23.401Z,39.33
2022-12-13T02:58:55.616Z,40.35
2022-12-13T03:02:10.514Z,35.67
2022-12-13T03:05:06.872Z,35.58
2022-12-13T03:07:43.549Z,38.95
2022-12-13T03:10:20.244Z,38.15
2022-12-13T03:13:13.965Z,38.47
2022-12-13T03:15:48.963Z,36.65
2022-12-13T03:18:21.681Z,34.92
2022-12-13T03:20:55.328Z,39.42
2022-12-13T03:23:24.996Z,39.47
2022-12-13T03:25:57.298Z,42.78
2022-12-13T03:28:25.706Z,37.22
2022-12-13T03:30:54.019Z,40.63
2022-12-13T03:33:23.823Z,34.13
2022-12-13T03:35:52.457Z,43.40
2022-12-13T03:38:22.637Z,32.58
2022-12-13T03:40:55.521Z,35.88
2022-12-13T03:43:24.080Z,38.30
2022-12-13T03:45:52.817Z,39.90
2022-12-13T03:48:23.914Z,34.65
2022-12-13T03:50:54.711Z,37.20
2022-12-13T03:53:33.610Z,37.15
2022-12-13T03:56:05.123Z,35.08
2022-12-13T03:58:37.689Z,37.22
2022-12-13T04:01:08.151Z,37.47
2022-12-13T04:03:39.232Z,36.05
2022-12-13T04:06:08.827Z,38.45
2022-12-13T04:08:39.341Z,37.75
2022-12-13T04:11:22.601Z,36.97
2022-12-13T04:13:50.965Z,37.92
2022-12-13T04:16:19.452Z,36.83
2022-12-13T04:18:49.258Z,36.03
2022-12-13T04:21:17.661Z,42.25
2022-12-13T04:23:46.028Z,37.72
2022-12-13T04:26:14.545Z,35.97
2022-12-13T04:28:42.964Z,40.10
2022-12-13T04:31:11.364Z,39.05
2022-12-13T04:33:47.742Z,36.28
2022-12-13T04:36:31.818Z,41.22
2022-12-13T04:39:01.791Z,39.20
2022-12-13T04:41:34.512Z,38.53
2022-12-13T04:44:05.069Z,40.50
2022-12-13T04:46:33.544Z,37.08
2022-12-13T04:49:03.325Z,39.70
2022-12-13T04:51:31.716Z,42.28
2022-12-13T04:54:23.540Z,37.17
2022-12-13T04:56:48.936Z,33.33
2022-12-13T04:59:17.739Z,41.70
2022-12-13T05:01:46.136Z,35.50
2022-12-13T05:04:15.883Z,37.65
2022-12-13T05:06:44.282Z,43.67
2022-12-13T05:09:12.597Z,38.78
2022-12-13T05:11:45.414Z,35.75
2022-12-13T05:14:23.337Z,42.95
2022-12-13T05:16:53.269Z,35.85
2022-12-13T05:19:31.129Z,39.55
2022-12-13T05:22:01.273Z,38.60
2022-12-13T05:24:31.775Z,37.13
2022-12-13T05:27:01.095Z,39.65
2022-12-13T05:29:29.844Z,42.95
2022-12-13T05:31:58.417Z,33.50
2022-12-13T05:34:28.408Z,36.38
2022-12-13T05:36:57.074Z,45.50
2022-12-13T05:39:27.895Z,33.40
2022-12-13T05:42:01.438Z,46.75
2022-12-13T05:44:31.680Z,34.60
2022-12-13T05:47:02.394Z,34.78
2022-12-13T05:49:33.389Z,36.45
2022-12-13T05:52:01.927Z,41.85
2022-12-13T05:54:30.323Z,42.83
2022-12-13T05:56:58.664Z,45.53
2022-12-13T05:59:27.033Z,38.65
2022-12-13T06:01:55.475Z,40.17
2022-12-13T06:04:23.942Z,37.33
2022-12-13T06:06:54.042Z,40.80
2022-12-13T06:09:23.379Z,40.78
2022-12-13T06:11:51.946Z,42.95
2022-12-13T06:14:29.708Z,46.70
2022-12-13T06:16:58.316Z,37.53
2022-12-13T06:19:27.261Z,39.67
2022-12-13T06:21:57.591Z,41.75
2022-12-13T06:24:27.426Z,43.05
2022-12-13T06:26:55.783Z,41.70
2022-12-13T06:29:25.736Z,39.00
2022-12-13T06:32:01.024Z,39.03
2022-12-13T06:34:33.467Z,37.72
2022-12-13T06:37:06.977Z,43.22
2022-12-13T06:39:36.312Z,40.88
2022-12-13T06:42:07.161Z,37.97
2022-12-13T06:44:37.495Z,30.23
2022-12-13T06:47:10.311Z,39.45
2022-12-13T06:49:43.146Z,38.35
2022-12-13T06:52:15.104Z,42.70
2022-12-13T06:54:44.558Z,37.15
2022-12-13T06:57:14.017Z,40.95
2022-12-13T06:59:42.895Z,42.90
2022-12-13T07:02:24.705Z,34.05
2022-12-13T07:04:56.238Z,41.63
2022-12-13T07:07:27.069Z,34.40
2022-12-13T07:09:55.697Z,37.05
2022-12-13T07:12:24.252Z,39.47
2022-12-13T07:14:55.074Z,38.85
2022-12-13T07:17:31.892Z,38.33
2022-12-13T07:20:02.352Z,32.80
2022-12-13T07:22:34.826Z,43.63
2022-12-13T07:25:06.016Z,34.10
2022-12-13T07:27:35.376Z,37.83
2022-12-13T07:30:04.210Z,42.67
2022-12-13T07:32:32.629Z,36.28
2022-12-13T07:35:01.159Z,42.38
2022-12-13T07:37:31.327Z,39.38
2022-12-13T07:40:04.390Z,36.30
2022-12-13T07:42:33.788Z,33.00
2022-12-13T07:45:02.206Z,36.20
2022-12-13T07:47:31.963Z,36.58
2022-12-13T07:50:01.509Z,36.42
2022-12-13T07:52:31.591Z,39.63
2022-12-13T07:55:00.096Z,38.90
2022-12-13T07:57:30.013Z,38.53
2022-12-13T07:59:58.430Z,35.10
2022-12-13T08:02:27.017Z,37.80
2022-12-13T08:04:55.636Z,34.70
2022-12-13T08:07:24.213Z,41.95
2022-12-13T08:09:55.370Z,36.58
2022-12-13T08:12:24.158Z,33.17
2022-12-13T08:14:53.216Z,33.85
2022-12-13T08:17:23.251Z,40.85
2022-12-13T08:19:51.680Z,39.63
2022-12-13T08:22:23.730Z,43.50
2022-12-13T08:24:54.251Z,34.70
2022-12-13T08:27:22.660Z,37.53
2022-12-13T08:29:51.190Z,34.13
2022-12-13T08:32:19.697Z,30.55
2022-12-13T08:34:48.182Z,42.90
2022-12-13T08:37:16.741Z,29.05
2022-12-13T08:39:45.741Z,35.58
2022-12-13T08:42:19.353Z,35.90
2022-12-13T08:44:50.559Z,38.67
2022-12-13T08:47:24.354Z,34.17
2022-12-13T08:50:02.267Z,36.88
2022-12-13T08:52:39.801Z,37.92
2022-12-13T08:55:10.963Z,39.47
2022-12-13T08:57:41.931Z,36.00
2022-12-13T09:00:14.125Z,31.40
2022-12-13T09:02:42.669Z,35.83
2022-12-13T09:05:12.946Z,38.65
2022-12-13T09:07:43.017Z,27.90
2022-12-13T09:10:27.144Z,41.97
2022-12-13T09:13:00.993Z,37.15
2022-12-13T09:15:34.064Z,38.63
2022-12-13T09:18:04.420Z,41.72
2022-12-13T09:20:40.776Z,33.00
2022-12-13T09:23:14.299Z,33.97
2022-12-13T09:26:05.524Z,33.22
2022-12-13T09:28:38.199Z,37.58
2022-12-13T09:31:09.928Z,40.13
2022-12-13T09:33:41.409Z,35.08
2022-12-13T09:36:14.275Z,32.25
2022-12-13T09:38:43.100Z,33.63
2022-12-13T09:41:20.400Z,32.10
2022-12-13T09:44:03.249Z,30.55
2022-12-13T09:46:44.323Z,36.05
2022-12-13T09:49:23.168Z,34.80
2022-12-13T09:52:10.840Z,33.28
2022-12-13T09:54:48.171Z,31.77
2022-12-13T09:57:31.150Z,34.55
2022-12-13T10:00:07.894Z,33.95
2022-12-13T10:02:45.635Z,34.30
2022-12-13T10:05:33.630Z,32.03
2022-12-13T10:08:09.812Z,30.15
2022-12-13T10:10:38.255Z,31.85
2022-12-13T10:13:17.934Z,33.50
2022-12-13T10:15:52.101Z,36.47
2022-12-13T10:18:34.880Z,31.70
2022-12-13T10:21:06.525Z,34.35
2022-12-13T10:23:59.351Z,37.10
2022-12-13T10:26:25.030Z,29.98
2022-12-13T10:29:04.799Z,29.63
2022-12-13T10:31:42.560Z,32.38
2022-12-13T10:34:24.471Z,30.98
2022-12-13T10:36:53.401Z,29.23
2022-12-13T10:39:40.725Z,27.33
2022-12-13T10:42:22.740Z,24.20
2022-12-13T10:45:14.708Z,31.20
2022-12-13T10:47:46.337Z,26.75
2022-12-13T10:50:26.570Z,29.05
2022-12-13T10:52:57.440Z,25.20
2022-12-13T10:55:30.295Z,28.88
2022-12-13T10:58:01.584Z,27.02
2022-12-13T11:00:42.141Z,33.45
2022-12-13T11:03:31.094Z,28.13
2022-12-13T11:06:06.411Z,33.60
2022-12-13T11:08:35.215Z,25.20
2022-12-13T11:11:05.804Z,24.53
2022-12-13T11:13:40.157Z,19.87
2022-12-13T11:16:24.546Z,22.10
2022-12-13T11:18:58.262Z,19.50
2022-12-13T11:21:29.118Z,18.37
2022-12-13T11:24:01.562Z,22.60
2022-12-13T11:26:32.693Z,21.10
2022-12-13T11:29:33.398Z,17.70
2022-12-13T11:32:11.094Z,19.10
2022-12-13T11:34:50.435Z,23.20
2022-12-13T11:37:27.863Z,21.20
2022-12-13T11:40:02.072Z,26.27
2022-12-13T11:42:38.478Z,19.33
2022-12-13T11:45:22.323Z,23.03
2022-12-13T11:48:04.769Z,23.47
2022-12-13T11:50:38.971Z,20.53
2022-12-13T11:53:24.431Z,20.70
2022-12-13T11:55:58.687Z,21.93
2022-12-13T12:01:27.726Z,18.63
2022-12-13T12:04:02.218Z,16.80
2022-12-13T12:06:40.437Z,19.90
2022-12-13T12:09:16.242Z,16.60
2022-12-13T12:11:52.920Z,21.23
2022-12-13T12:14:26.201Z,15.37
2022-12-13T12:16:57.045Z,18.30
2022-12-13T12:19:31.801Z,17.93
2022-12-13T12:22:18.919Z,17.20
2022-12-13T12:25:19.207Z,19.67
2022-12-13T12:27:57.034Z,17.43
2022-12-13T12:30:28.858Z,25.23
2022-12-13T12:33:07.386Z,20.17
2022-12-13T12:36:05.328Z,17.73
2022-12-13T12:39:27.809Z,19.23
2022-12-13T12:42:21.423Z,19.40
2022-12-13T12:45:10.451Z,23.10
2022-12-13T12:48:43.910Z,18.93
2022-12-13T12:50:46.272Z,16.33
2022-12-13T12:53:36.641Z,19.00
2022-12-13T12:56:23.078Z,19.77
2022-12-13T12:58:59.461Z,21.90
2022-12-13T13:01:48.408Z,21.70
2022-12-13T13:04:22.550Z,20.07
2022-12-13T13:07:01.863Z,19.20
2022-12-13T13:09:32.495Z,18.80
2022-12-13T13:12:28.807Z,26.00
2022-12-13T13:14:54.104Z,22.53
2022-12-13T13:17:49.436Z,20.00
2022-12-13T13:20:23.405Z,18.97
2022-12-13T13:23:10.263Z,23.17
2022-12-13T13:28:45.994Z,21.93
2022-12-13T13:31:14.453Z,28.73
2022-12-13T13:33:51.144Z,24.17
2022-12-13T13:36:57.115Z,22.13
2022-12-13T13:39:58.806Z,22.03
2022-12-13T13:42:28.915Z,23.13
2022-12-13T13:45:21.504Z,21.27
2022-12-13T13:48:14.288Z,21.33
2022-12-13T13:55:16.354Z,21.40
2022-12-13T13:58:53.892Z,21.40
2022-12-13T14:02:01.359Z,24.17
2022-12-13T14:05:30.610Z,18.13
2022-12-13T14:08:22.693Z,23.07
2022-12-13T14:11:18.254Z,28.53
2022-12-13T14:14:42.896Z,33.40
2022-12-13T14:18:25.863Z,32.90
2022-12-13T14:21:16.815Z,30.80
2022-12-13T14:23:59.350Z,32.33
2022-12-13T14:26:55.381Z,29.93
2022-12-13T14:29:29.552Z,31.07
2022-12-13T14:31:58.954Z,29.07
2022-12-13T14:34:31.836Z,30.67
2022-12-13T14:37:02.917Z,28.23
2022-12-13T14:39:34.710Z,33.90
2022-12-13T14:42:22.716Z,34.80
2022-12-13T14:44:51.284Z,27.93
2022-12-13T14:47:21.380Z,25.80
2022-12-13T14:49:55.944Z,26.20
2022-12-13T14:52:28.038Z,33.37
2022-12-13T14:54:59.627Z,26.60
2022-12-13T14:57:30.882Z,28.10
2022-12-13T15:00:01.389Z,26.50
2022-12-13T15:02:32.609Z,29.75
2022-12-13T15:05:05.592Z,26.10
2022-12-13T15:07:38.156Z,29.35
2022-12-13T15:10:22.245Z,27.47
2022-12-13T15:12:52.184Z,29.60
2022-12-13T15:15:28.593Z,31.38
2022-12-13T15:18:08.905Z,29.23
2022-12-13T15:20:43.112Z,27.17
2022-12-13T15:23:26.037Z,25.42
2022-12-13T15:26:28.304Z,29.07
2022-12-13T15:29:00.937Z,26.17
2022-12-13T15:31:30.175Z,27.07
2022-12-13T15:34:28.498Z,27.83
2022-12-13T15:37:02.677Z,28.40
2022-12-13T15:39:32.182Z,36.43
2022-12-13T15:42:01.200Z,26.63
2022-12-13T15:44:32.868Z,28.77
2022-12-13T15:47:05.743Z,28.50
2022-12-13T15:49:38.229Z,33.90
2022-12-13T15:52:28.710Z,26.67
2022-12-13T15:54:59.462Z,29.10
2022-12-13T15:57:30.049Z,23.47
2022-12-13T16:00:29.276Z,22.70
2022-12-13T16:03:09.293Z,29.93
2022-12-13T16:05:42.396Z,21.73
2022-12-13T16:08:29.498Z,21.57
2022-12-13T16:10:59.060Z,27.97
2022-12-13T16:13:30.756Z,22.37
2022-12-13T16:16:08.813Z,22.33
2022-12-13T16:18:46.769Z,20.27
2022-12-13T16:21:15.565Z,19.13
2022-12-13T16:23:48.745Z,20.17
2022-12-13T16:26:25.482Z,16.90
2022-12-13T16:28:54.370Z,20.63
2022-12-13T16:31:25.031Z,19.43
2022-12-13T16:33:53.517Z,17.27
2022-12-13T16:36:21.972Z,17.43
2022-12-13T16:38:52.491Z,23.00
2022-12-13T16:41:22.075Z,18.95
2022-12-13T16:43:56.878Z,21.53
2022-12-13T16:47:16.681Z,17.60
2022-12-13T16:49:21.875Z,15.47
2022-12-13T16:51:50.665Z,13.43
2022-12-13T16:54:22.699Z,14.13
2022-12-13T16:56:52.398Z,14.20
2022-12-13T16:59:23.887Z,18.33
2022-12-13T17:01:53.137Z,12.93
2022-12-13T17:04:24.359Z,15.27
2022-12-13T17:06:54.997Z,13.43
2022-12-13T17:09:25.700Z,15.40
2022-12-13T17:11:54.101Z,15.40
2022-12-13T17:14:22.458Z,11.60
2022-12-13T17:16:51.623Z,17.42
2022-12-13T17:19:20.280Z,15.75
2022-12-13T17:21:49.557Z,12.88
2022-12-13T17:24:18.040Z,17.47
2022-12-13T17:26:54.477Z,15.60
2022-12-13T17:31:53.410Z,13.90
2022-12-13T17:34:21.853Z,14.93
2022-12-13T17:36:50.299Z,14.63
2022-12-13T17:39:18.952Z,14.80
2022-12-13T17:41:54.901Z,18.80
2022-12-13T17:44:25.057Z,17.20
2022-12-13T17:46:55.182Z,17.33
2022-12-13T17:49:24.767Z,15.82
2022-12-13T17:51:54.342Z,14.05
2022-12-13T17:54:24.740Z,14.95
2022-12-13T17:56:54.921Z,17.80
2022-12-13T17:59:23.527Z,17.90
2022-12-13T18:01:52.508Z,15.40
2022-12-13T18:04:21.946Z,17.88
2022-12-13T18:06:52.251Z,16.90
2022-12-13T18:09:20.644Z,20.15
2022-12-13T18:11:49.184Z,22.77
2022-12-13T18:14:18.943Z,16.67
2022-12-13T18:16:47.820Z,18.38
2022-12-13T18:19:16.481Z,17.55
2022-12-13T18:21:44.972Z,17.23
2022-12-13T18:24:13.774Z,17.73
2022-12-13T18:26:42.382Z,16.00
2022-12-13T18:29:10.768Z,16.85
2022-12-13T18:31:40.928Z,15.40
2022-12-13T18:34:10.158Z,14.93
2022-12-13T18:36:39.557Z,15.63
2022-12-13T18:39:07.963Z,16.00
2022-12-13T18:41:36.431Z,15.27
2022-12-13T18:44:07.946Z,13.77
2022-12-13T18:46:39.792Z,17.15
2022-12-13T18:49:12.980Z,18.30
2022-12-13T18:51:41.449Z,16.08
2022-12-13T18:54:10.078Z,15.35
2022-12-13T18:56:38.420Z,18.02
2022-12-13T18:59:06.848Z,17.67
2022-12-13T19:01:35.795Z,18.45
2022-12-13T19:04:04.414Z,20.67
2022-12-13T19:06:34.233Z,15.32
2022-12-13T19:09:02.686Z,17.83
2022-12-13T19:11:32.814Z,19.85
2022-12-13T19:14:01.233Z,15.90
2022-12-13T19:16:29.643Z,16.27
2022-12-13T19:18:59.497Z,14.77
2022-12-13T19:21:28.447Z,17.77
2022-12-13T19:24:01.196Z,20.27
2022-12-13T19:26:30.576Z,13.73
2022-12-13T19:29:00.115Z,16.75
2022-12-13T19:31:32.236Z,14.63
2022-12-13T19:34:02.806Z,22.25
2022-12-13T19:36:32.004Z,18.60
2022-12-13T19:39:01.884Z,15.63
2022-12-13T19:41:32.262Z,20.23
2022-12-13T19:44:04.573Z,18.00
2022-12-13T19:46:33.040Z,15.80
2022-12-13T19:49:01.525Z,18.60
2022-12-13T19:51:34.460Z,16.50
2022-12-13T19:54:07.557Z,18.35
2022-12-13T19:56:36.025Z,15.13
2022-12-13T19:59:05.238Z,13.93
2022-12-13T20:01:33.803Z,17.20
2022-12-13T20:04:02.608Z,15.77
2022-12-13T20:06:31.556Z,18.85
2022-12-13T20:09:01.417Z,19.50
2022-12-13T20:11:31.490Z,20.13
2022-12-13T20:13:59.919Z,14.00
2022-12-13T20:16:28.609Z,16.08
2022-12-13T20:18:58.333Z,15.97
2022-12-13T20:21:27.863Z,20.05
2022-12-13T20:23:56.492Z,17.02
2022-12-13T20:26:27.898Z,16.42
2022-12-13T20:28:58.329Z,19.48
2022-12-13T20:31:30.553Z,17.55
2022-12-13T20:34:02.264Z,18.02
2022-12-13T20:36:31.819Z,17.27
2022-12-13T20:39:02.424Z,20.50
2022-12-13T20:41:34.344Z,17.85
2022-12-13T20:44:07.826Z,18.10
2022-12-13T20:46:37.883Z,16.70
2022-12-13T20:49:08.607Z,22.67
2022-12-13T20:51:39.650Z,18.45
2022-12-13T20:54:08.316Z,17.23
2022-12-13T20:56:39.282Z,18.40
2022-12-13T20:59:12.853Z,16.38
2022-12-13T21:01:43.065Z,14.93
2022-12-13T21:04:12.796Z,17.00
2022-12-13T21:06:43.070Z,17.15
2022-12-13T21:09:13.105Z,21.13
2022-12-13T21:11:43.627Z,18.10
2022-12-13T21:14:21.406Z,22.40
2022-12-13T21:16:52.775Z,16.42
2022-12-13T21:19:24.243Z,19.35
2022-12-13T21:21:53.670Z,22.67
2022-12-13T21:24:24.660Z,18.48
2022-12-13T21:26:55.787Z,20.52
2022-12-13T21:29:25.851Z,16.98
2022-12-13T21:31:54.903Z,18.58
2022-12-13T21:34:24.139Z,22.83
2022-12-13T21:36:53.648Z,19.90
2022-12-13T21:39:24.527Z,23.42
2022-12-13T21:41:54.046Z,17.52
2022-12-13T21:44:22.934Z,18.17
2022-12-13T21:49:42.067Z,21.02
2022-12-13T21:52:18.092Z,14.65
2022-12-13T21:54:46.645Z,21.23
2022-12-13T21:57:32.410Z,23.83
2022-12-13T22:00:00.811Z,16.50
2022-12-13T22:02:30.650Z,16.92
2022-12-13T22:04:59.961Z,15.80
2022-12-13T22:07:30.935Z,19.95
2022-12-13T22:10:01.347Z,18.20
2022-12-13T22:12:35.330Z,17.35
2022-12-13T22:15:05.764Z,17.75
2022-12-13T22:17:36.455Z,17.88
2022-12-13T22:20:08.018Z,14.35
2022-12-13T22:22:36.579Z,16.83
2022-12-13T22:25:06.187Z,17.60
2022-12-13T22:27:34.881Z,18.10
2022-12-13T22:30:03.153Z,13.05
2022-12-13T22:32:32.784Z,13.25
2022-12-13T22:35:02.462Z,14.98
2022-12-13T22:37:30.832Z,15.93
2022-12-13T22:39:59.165Z,14.45
2022-12-13T22:42:27.821Z,13.02
2022-12-13T22:44:56.219Z,14.77
2022-12-13T22:47:24.638Z,16.00
2022-12-13T22:49:52.952Z,15.27
2022-12-13T22:52:22.993Z,15.07
2022-12-13T22:54:51.286Z,13.75
2022-12-13T22:57:19.644Z,15.27
2022-12-13T22:59:48.009Z,14.52
2022-12-13T23:02:16.727Z,16.30
2022-12-13T23:04:45.200Z,12.23
2022-12-13T23:07:13.584Z,11.95
2022-12-13T23:09:43.306Z,13.25
2022-12-13T23:12:30.649Z,11.68
2022-12-13T23:14:59.068Z,12.63
2022-12-13T23:17:27.488Z,13.63
2022-12-13T23:19:55.915Z,12.10
2022-12-13T23:22:26.698Z,14.73
2022-12-13T23:24:56.474Z,11.40
2022-12-13T23:27:25.570Z,12.98
2022-12-13T23:29:53.933Z,11.90
2022-12-13T23:32:22.260Z,12.23
2022-12-13T23:34:50.586Z,11.00
2022-12-13T23:37:20.149Z,12.80
2022-12-13T23:39:48.504Z,11.35
2022-12-13T23:42:18.266Z,10.93
2022-12-13T23:44:46.657Z,12.55
2022-12-13T23:47:14.971Z,12.57
2022-12-13T23:49:43.314Z,11.25
2022-12-13T23:52:11.737Z,11.30
2022-12-13T23:54:40.030Z,12.85
2022-12-13T23:57:08.316Z,13.93
2022-12-13T23:59:38.064Z,13.65
